Time;durP1;ratioP1;P1;durP2;ratioP2;P2;SDS_P1;SDS_P2;PMS_P1;PMS_P2;Temp;Humidity;BMP_temperature;BMP_pressure;BME280_temperature;BME280_humidity;BME280_pressure;Samples;Min_cycle;Max_cycle;Signal;HPM_P1;HPM_P2
2021/03/13 00:00:23;;;;;;;3.00;1.40;;;7.80;99.90;;;;;;5053255;28;20935;-48
2021/03/13 00:02:50;;;;;;;3.87;1.67;;;7.80;99.90;;;;;;5053177;28;20433;-46
2021/03/13 00:05:22;;;;;;;4.30;1.40;;;7.90;99.90;;;;;;5053443;28;21030;-47
2021/03/13 00:07:49;;;;;;;3.23;1.40;;;7.70;99.90;;;;;;5053166;28;20656;-47
2021/03/13 00:10:16;;;;;;;3.97;1.50;;;7.90;99.90;;;;;;5035591;28;20471;-48
2021/03/13 00:12:42;;;;;;;4.33;2.10;;;7.70;99.90;;;;;;5053455;28;20788;-46
2021/03/13 00:15:14;;;;;;;3.90;1.60;;;7.60;99.90;;;;;;5053175;28;20516;-47
2021/03/13 00:17:41;;;;;;;3.20;1.80;;;7.70;99.90;;;;;;5053538;28;20489;-47
2021/03/13 00:20:09;;;;;;;3.53;1.83;;;7.90;99.90;;;;;;5053513;28;20554;-48
2021/03/13 00:22:35;;;;;;;2.20;1.13;;;7.80;99.90;;;;;;5053371;28;20850;-48
2021/03/13 00:25:02;;;;;;;3.27;1.83;;;7.80;99.90;;;;;;5053089;28;20773;-47
2021/03/13 00:27:28;;;;;;;4.70;1.40;;;7.50;99.90;;;;;;5053074;28;20444;-47
2021/03/13 00:29:54;;;;;;;2.50;1.30;;;7.80;99.90;;;;;;5053934;28;20811;-47
2021/03/13 00:32:21;;;;;;;3.23;1.90;;;7.60;99.90;;;;;;5053061;28;20480;-46
2021/03/13 00:34:48;;;;;;;2.70;1.73;;;7.80;99.90;;;;;;5052816;28;20487;-48
2021/03/13 00:37:14;;;;;;;4.00;1.77;;;7.60;99.90;;;;;;5053461;28;20919;-46
2021/03/13 00:39:41;;;;;;;2.80;1.67;;;7.40;99.90;;;;;;5053273;28;20461;-47
2021/03/13 00:42:07;;;;;;;4.33;2.40;;;7.90;99.90;;;;;;5053370;28;20435;-48
2021/03/13 00:44:34;;;;;;;3.87;2.27;;;7.50;99.90;;;;;;5052760;28;20491;-49
2021/03/13 00:47:00;;;;;;;3.97;2.00;;;7.90;99.90;;;;;;5053440;28;20498;-47
2021/03/13 00:49:27;;;;;;;2.47;1.50;;;7.60;99.90;;;;;;5034983;28;20461;-48
2021/03/13 00:51:54;;;;;;;3.60;1.87;;;7.70;99.90;;;;;;5037250;28;20449;-46
2021/03/13 00:54:20;;;;;;;2.17;1.70;;;7.50;99.90;;;;;;5054964;28;20480;-48
2021/03/13 00:56:46;;;;;;;2.53;2.20;;;7.50;99.90;;;;;;5037838;28;20500;-46
2021/03/13 00:59:13;;;;;;;5.10;2.20;;;7.50;99.90;;;;;;5037561;28;20539;-47
2021/03/13 01:01:40;;;;;;;2.80;2.00;;;7.50;99.90;;;;;;5037474;28;21013;-47
2021/03/13 01:04:06;;;;;;;5.13;2.47;;;7.30;99.90;;;;;;5054418;28;20444;-49
2021/03/13 01:06:33;;;;;;;3.20;2.20;;;7.60;99.90;;;;;;5036208;28;20451;-46
2021/03/13 01:09:00;;;;;;;3.17;1.70;;;7.30;99.90;;;;;;5052636;28;20837;-46
2021/03/13 01:11:32;;;;;;;2.40;1.40;;;7.50;99.90;;;;;;5034922;28;20483;-46
2021/03/13 01:14:03;;;;;;;2.07;1.80;;;7.50;99.90;;;;;;5052141;28;20484;-47
2021/03/13 01:16:36;;;;;;;5.07;2.07;;;7.50;99.90;;;;;;5035114;28;20480;-49
2021/03/13 01:19:03;;;;;;;3.93;1.73;;;7.50;99.90;;;;;;5035034;28;20468;-48
2021/03/13 01:21:30;;;;;;;4.70;1.60;;;7.50;99.90;;;;;;5034695;28;20476;-46
2021/03/13 01:23:57;;;;;;;2.73;1.80;;;7.50;99.90;;;;;;5034664;28;20455;-47
2021/03/13 01:26:29;;;;;;;4.83;2.17;;;7.40;99.90;;;;;;5035489;28;20453;-46
2021/03/13 01:28:58;;;;;;;4.30;2.20;;;7.60;99.90;;;;;;5036921;28;20505;-47
2021/03/13 01:32:02;;;;;;;4.10;2.20;;;7.30;99.90;;;;;;5044140;28;20542;-48
2021/03/13 01:34:32;;;;;;;2.73;1.70;;;7.60;99.90;;;;;;5053712;28;20821;-47
2021/03/13 01:37:07;;;;;;;3.63;2.10;;;7.50;99.90;;;;;;5052669;28;20448;-47
2021/03/13 01:39:38;;;;;;;2.10;1.80;;;7.40;99.90;;;;;;5034480;28;20475;-46
2021/03/13 01:42:09;;;;;;;3.57;1.93;;;7.10;99.90;;;;;;5034707;28;20440;-48
2021/03/13 01:44:35;;;;;;;3.97;2.33;;;7.50;99.90;;;;;;5052045;28;20429;-47
2021/03/13 01:47:02;;;;;;;3.03;1.90;;;7.40;99.90;;;;;;5052227;28;20502;-46
2021/03/13 01:49:31;;;;;;;3.50;2.03;;;7.30;99.90;;;;;;5035137;28;20448;-47
2021/03/13 01:51:59;;;;;;;4.13;2.37;;;7.60;99.90;;;;;;5035368;28;20922;-47
2021/03/13 01:54:26;;;;;;;2.53;2.17;;;7.30;99.90;;;;;;5035850;28;20495;-47
2021/03/13 01:56:54;;;;;;;6.00;2.70;;;7.50;99.90;;;;;;5036337;28;20991;-45
2021/03/13 01:59:24;;;;;;;4.83;2.60;;;7.70;99.90;;;;;;5035745;28;20467;-46
2021/03/13 02:01:53;;;;;;;6.77;2.90;;;7.50;99.90;;;;;;5054350;28;20433;-47
2021/03/13 02:04:22;;;;;;;4.40;1.80;;;7.40;99.90;;;;;;5039058;28;20452;-47
2021/03/13 02:07:00;;;;;;;4.40;2.17;;;7.40;99.90;;;;;;5040016;28;20472;-47
2021/03/13 02:09:33;;;;;;;5.83;2.47;;;7.50;99.90;;;;;;5039952;28;20539;-48
2021/03/13 02:12:13;;;;;;;3.57;2.10;;;7.50;99.90;;;;;;5038298;28;20427;-47
2021/03/13 02:14:49;;;;;;;6.73;2.10;;;7.60;99.90;;;;;;5037613;28;21018;-47
2021/03/13 02:17:30;;;;;;;2.73;2.40;;;7.40;99.90;;;;;;5039616;28;20447;-46
2021/03/13 02:20:20;;;;;;;3.73;2.20;;;7.40;99.90;;;;;;5042389;28;20467;-46
2021/03/13 02:22:52;;;;;;;5.13;2.80;;;7.10;99.90;;;;;;5038526;28;20449;-47
2021/03/13 02:25:49;;;;;;;4.47;2.60;;;7.30;99.90;;;;;;5056992;28;20783;-46
2021/03/13 02:28:28;;;;;;;3.47;2.40;;;7.50;99.90;;;;;;5039260;28;20463;-46
2021/03/13 02:30:57;;;;;;;4.53;2.60;;;7.10;99.90;;;;;;5039780;28;20467;-47
2021/03/13 02:33:28;;;;;;;2.87;2.40;;;7.30;99.90;;;;;;5041274;28;20471;-47
2021/03/13 02:36:17;;;;;;;6.93;2.90;;;6.90;99.90;;;;;;5060065;28;20473;-47
2021/03/13 02:38:58;;;;;;;5.43;2.80;;;7.30;99.90;;;;;;5042018;28;20579;-48
2021/03/13 02:41:33;;;;;;;3.77;2.37;;;7.20;99.90;;;;;;5057539;28;20444;-47
2021/03/13 02:44:04;;;;;;;4.97;2.33;;;7.20;99.90;;;;;;5040287;28;20470;-47
2021/03/13 02:46:40;;;;;;;5.77;3.23;;;7.10;99.90;;;;;;5039503;28;20426;-46
2021/03/13 02:49:07;;;;;;;4.80;2.60;;;7.40;99.90;;;;;;5040880;28;20464;-47
2021/03/13 02:51:36;;;;;;;4.90;3.10;;;7.10;99.90;;;;;;5040831;28;20471;-47
2021/03/13 02:54:04;;;;;;;4.73;3.10;;;7.20;99.90;;;;;;5041049;28;20479;-46
2021/03/13 02:56:33;;;;;;;4.60;3.60;;;6.90;99.90;;;;;;5040918;28;20487;-46
2021/03/13 02:59:01;;;;;;;4.50;3.40;;;7.00;99.90;;;;;;5041848;28;20451;-47
2021/03/13 03:01:35;;;;;;;8.33;3.83;;;7.50;99.90;;;;;;5041437;28;20483;-49
2021/03/13 03:04:04;;;;;;;6.37;3.47;;;7.50;99.90;;;;;;5039984;28;20456;-48
2021/03/13 03:06:35;;;;;;;9.37;3.67;;;7.30;99.90;;;;;;5040495;28;20431;-50
2021/03/13 03:09:04;;;;;;;5.03;3.37;;;7.60;99.90;;;;;;5040735;28;20463;-48
2021/03/13 03:11:36;;;;;;;9.83;3.10;;;7.50;99.90;;;;;;5040254;28;20469;-49
2021/03/13 03:14:05;;;;;;;7.33;3.40;;;6.90;99.90;;;;;;5039139;28;20538;-49
2021/03/13 03:16:40;;;;;;;9.93;3.47;;;7.30;99.90;;;;;;5038837;28;20447;-49
2021/03/13 03:19:08;;;;;;;6.93;3.47;;;7.50;99.90;;;;;;5039819;28;20459;-48
2021/03/13 03:21:39;;;;;;;4.13;3.03;;;7.50;99.90;;;;;;5039611;28;20889;-50
2021/03/13 03:24:07;;;;;;;7.63;3.17;;;7.20;99.90;;;;;;5057138;28;20406;-47
2021/03/13 03:26:35;;;;;;;3.70;2.60;;;6.90;99.90;;;;;;5040368;28;20928;-49
2021/03/13 03:29:01;;;;;;;5.27;3.00;;;7.00;99.90;;;;;;5056665;28;20811;-48
2021/03/13 03:31:28;;;;;;;6.97;3.00;;;7.00;99.90;;;;;;5040259;28;20533;-49
2021/03/13 03:33:55;;;;;;;3.30;2.57;;;7.10;99.90;;;;;;5058238;28;20829;-49
2021/03/13 03:36:21;;;;;;;4.80;2.50;;;7.20;99.90;;;;;;5039761;28;20462;-49
2021/03/13 03:38:54;;;;;;;4.57;3.10;;;7.20;99.90;;;;;;5037589;28;20791;-49
2021/03/13 03:41:28;;;;;;;4.93;2.93;;;7.00;99.90;;;;;;5037947;28;20968;-50
2021/03/13 03:44:01;;;;;;;7.10;3.00;;;6.70;99.90;;;;;;5036145;28;20463;-50
2021/03/13 03:46:33;;;;;;;7.57;2.57;;;6.80;99.90;;;;;;5036470;28;20450;-49
2021/03/13 03:49:03;;;;;;;3.50;3.00;;;6.70;99.90;;;;;;5054218;28;20435;-48
2021/03/13 03:51:36;;;;;;;4.80;2.60;;;6.90;99.90;;;;;;5036164;28;20513;-48
2021/03/13 03:54:11;;;;;;;6.23;2.10;;;6.70;99.90;;;;;;5035716;28;20557;-48
2021/03/13 03:56:39;;;;;;;5.00;2.80;;;6.60;99.90;;;;;;5054294;28;20455;-48
2021/03/13 03:59:08;;;;;;;2.90;2.03;;;6.80;99.90;;;;;;5053989;28;20966;-48
2021/03/13 04:01:35;;;;;;;3.77;2.10;;;6.80;99.90;;;;;;5053813;28;20458;-48
2021/03/13 04:04:04;;;;;;;3.03;2.13;;;6.80;99.90;;;;;;5053592;28;20831;-49
2021/03/13 04:06:32;;;;;;;3.90;2.27;;;6.80;99.90;;;;;;5053607;28;20442;-49
2021/03/13 04:09:00;;;;;;;3.53;2.30;;;6.70;99.90;;;;;;5053681;28;20414;-48
2021/03/13 04:11:28;;;;;;;4.70;1.90;;;6.80;99.90;;;;;;5053608;28;20494;-49
2021/03/13 04:13:57;;;;;;;3.30;2.20;;;6.90;99.90;;;;;;5053002;28;20569;-48
2021/03/13 04:16:26;;;;;;;3.63;1.73;;;6.80;99.90;;;;;;5053743;28;20525;-49
2021/03/13 04:18:52;;;;;;;2.83;1.90;;;6.80;99.90;;;;;;5053762;28;20814;-48
2021/03/13 04:21:19;;;;;;;5.67;2.60;;;6.50;99.90;;;;;;5035392;28;21010;-50
2021/03/13 04:23:47;;;;;;;5.20;2.20;;;6.40;99.90;;;;;;5053241;28;20835;-49
2021/03/13 04:26:15;;;;;;;4.90;2.97;;;6.50;99.90;;;;;;5052903;28;20902;-50
2021/03/13 04:28:42;;;;;;;3.67;2.40;;;6.80;99.90;;;;;;5054010;28;20943;-50
2021/03/13 04:31:09;;;;;;;5.00;2.60;;;6.50;99.90;;;;;;5053734;28;20535;-49
2021/03/13 04:33:37;;;;;;;3.10;2.20;;;6.40;99.90;;;;;;5053058;28;20840;-49
2021/03/13 04:36:05;;;;;;;2.83;2.07;;;6.70;99.90;;;;;;5053521;28;20445;-50
2021/03/13 04:38:33;;;;;;;3.43;2.13;;;6.80;99.90;;;;;;5053654;28;20439;-49
2021/03/13 04:41:00;;;;;;;3.60;2.03;;;6.70;99.90;;;;;;5053276;28;20506;-49
2021/03/13 04:43:27;;;;;;;4.70;2.30;;;6.30;99.90;;;;;;5052830;28;20883;-49
2021/03/13 04:45:57;;;;;;;4.30;1.97;;;6.50;99.90;;;;;;5052785;28;20527;-49
2021/03/13 04:48:24;;;;;;;3.67;1.90;;;6.80;99.90;;;;;;5052972;28;20435;-48
2021/03/13 04:50:50;;;;;;;1.90;1.70;;;6.80;99.90;;;;;;5053057;28;20470;-49
2021/03/13 04:53:16;;;;;;;4.20;1.90;;;6.40;99.90;;;;;;5052896;28;20430;-49
2021/03/13 04:55:43;;;;;;;3.00;2.10;;;6.50;99.90;;;;;;5052764;28;20436;-50
2021/03/13 04:58:10;;;;;;;3.30;1.87;;;6.70;99.90;;;;;;5052435;28;21037;-50
2021/03/13 05:00:36;;;;;;;2.97;1.93;;;6.70;99.90;;;;;;5052554;28;20467;-49
2021/03/13 05:03:02;;;;;;;2.90;1.93;;;7.10;99.90;;;;;;5052680;28;20452;-49
2021/03/13 05:05:32;;;;;;;3.27;2.33;;;6.90;99.90;;;;;;5052611;28;20451;-49
2021/03/13 05:07:59;;;;;;;5.30;2.10;;;6.90;99.90;;;;;;5052431;28;20439;-49
2021/03/13 05:10:26;;;;;;;4.27;2.33;;;7.10;99.90;;;;;;5052508;28;20995;-49
2021/03/13 05:12:53;;;;;;;3.40;2.03;;;7.30;99.90;;;;;;5052298;28;20928;-49
2021/03/13 05:15:20;;;;;;;4.90;2.03;;;6.70;99.90;;;;;;5052545;28;20521;-50
2021/03/13 05:17:46;;;;;;;5.07;1.97;;;7.20;99.90;;;;;;5052868;28;20501;-49
2021/03/13 05:20:13;;;;;;;2.40;1.90;;;7.00;99.90;;;;;;5052337;28;20537;-50
2021/03/13 05:22:39;;;;;;;3.93;2.20;;;6.30;99.90;;;;;;5052167;28;21022;-49
2021/03/13 05:25:07;;;;;;;5.80;2.80;;;7.40;99.90;;;;;;5052518;28;20439;-50
2021/03/13 05:27:33;;;;;;;2.87;2.13;;;6.90;99.90;;;;;;5052411;28;20424;-49
2021/03/13 05:30:01;;;;;;;4.07;2.20;;;6.80;99.90;;;;;;5052284;28;20456;-49
2021/03/13 05:32:27;;;;;;;3.87;2.33;;;6.50;99.90;;;;;;5052393;28;20526;-49
2021/03/13 05:34:54;;;;;;;3.57;2.40;;;6.20;99.90;;;;;;5052620;28;20510;-49
2021/03/13 05:37:20;;;;;;;3.20;1.90;;;6.60;99.90;;;;;;5052601;28;20438;-48
2021/03/13 05:39:46;;;;;;;3.00;2.30;;;6.60;99.90;;;;;;5056491;28;20498;-49
2021/03/13 05:42:13;;;;;;;7.67;2.97;;;6.60;99.90;;;;;;5056349;28;20790;-49
2021/03/13 05:44:40;;;;;;;9.10;2.20;;;6.80;99.90;;;;;;5056327;28;20462;-49
2021/03/13 05:47:08;;;;;;;3.63;2.47;;;7.00;99.90;;;;;;5056780;28;20932;-49
2021/03/13 05:49:35;;;;;;;4.17;2.40;;;7.10;99.90;;;;;;5056256;28;20525;-48
2021/03/13 05:52:03;;;;;;;4.10;2.40;;;7.00;99.90;;;;;;5056409;28;20427;-49
2021/03/13 05:54:30;;;;;;;3.87;2.40;;;6.80;99.90;;;;;;5055702;28;20475;-48
2021/03/13 05:56:58;;;;;;;5.40;2.63;;;6.60;99.90;;;;;;5056549;28;20955;-48
2021/03/13 05:59:24;;;;;;;3.70;2.20;;;6.80;99.90;;;;;;5038520;28;20871;-48
2021/03/13 06:01:52;;;;;;;2.70;2.40;;;7.10;99.90;;;;;;5056288;28;20426;-49
2021/03/13 06:04:19;;;;;;;4.10;2.70;;;6.90;99.90;;;;;;5055796;28;20485;-49
2021/03/13 06:06:49;;;;;;;4.00;2.40;;;6.90;99.90;;;;;;5056105;28;20431;-50
2021/03/13 06:09:15;;;;;;;3.10;2.03;;;7.00;99.90;;;;;;5055622;28;20447;-47
2021/03/13 06:11:41;;;;;;;4.60;2.27;;;7.30;99.90;;;;;;5056027;28;20473;-49
2021/03/13 06:14:07;;;;;;;4.33;2.80;;;7.50;99.90;;;;;;5055490;28;20470;-49
2021/03/13 06:16:34;;;;;;;4.07;2.60;;;7.30;99.90;;;;;;5055769;28;20432;-49
2021/03/13 06:19:00;;;;;;;6.17;3.17;;;7.40;99.90;;;;;;5055472;28;20482;-49
2021/03/13 06:21:31;;;;;;;5.00;3.17;;;7.30;99.90;;;;;;5055644;28;20456;-50
2021/03/13 06:23:59;;;;;;;4.83;2.87;;;7.20;99.90;;;;;;5055389;28;20431;-50
2021/03/13 06:26:27;;;;;;;3.73;3.17;;;7.60;99.90;;;;;;5056283;28;20433;-50
2021/03/13 06:28:54;;;;;;;3.30;2.53;;;7.70;99.90;;;;;;5057379;28;20498;-50
2021/03/13 06:31:25;;;;;;;3.10;2.80;;;7.70;99.90;;;;;;5057158;28;20960;-50
2021/03/13 06:33:52;;;;;;;3.93;2.70;;;7.70;99.90;;;;;;5055410;28;20471;-49
2021/03/13 06:36:23;;;;;;;3.80;2.80;;;7.80;99.90;;;;;;5055750;28;20432;-50
2021/03/13 06:38:52;;;;;;;5.10;3.27;;;8.00;99.90;;;;;;5037985;28;20454;-49
2021/03/13 06:41:22;;;;;;;3.10;2.47;;;7.90;99.90;;;;;;5055862;28;20511;-49
2021/03/13 06:43:49;;;;;;;4.27;2.80;;;8.10;99.90;;;;;;5055395;28;20443;-49
2021/03/13 06:46:16;;;;;;;3.97;3.20;;;7.90;99.90;;;;;;5055311;28;20459;-50
2021/03/13 06:48:45;;;;;;;3.33;2.90;;;8.00;99.90;;;;;;5055130;28;20437;-49
2021/03/13 06:51:28;;;;;;;5.00;2.73;;;8.30;99.90;;;;;;5055477;28;20460;-48
2021/03/13 06:54:09;;;;;;;3.30;3.00;;;8.20;99.90;;;;;;5055613;28;20451;-49
2021/03/13 06:56:38;;;;;;;4.57;3.10;;;8.30;99.90;;;;;;5056130;28;20433;-50
2021/03/13 06:59:21;;;;;;;4.20;3.63;;;8.20;99.90;;;;;;5056086;28;20939;-49
2021/03/13 07:01:58;;;;;;;5.00;3.47;;;8.30;99.90;;;;;;5055969;28;20454;-49
2021/03/13 07:04:31;;;;;;;4.00;2.67;;;8.30;99.90;;;;;;5057587;28;20436;-49
2021/03/13 07:06:57;;;;;;;8.60;2.60;;;8.40;99.90;;;;;;5057661;28;20445;-49
2021/03/13 07:09:45;;;;;;;4.90;2.20;;;8.60;99.90;;;;;;5058157;28;20437;-49
2021/03/13 07:12:32;;;;;;;4.03;2.50;;;8.60;99.90;;;;;;5040360;28;20457;-48
2021/03/13 07:15:13;;;;;;;3.43;2.20;;;8.60;99.90;;;;;;5057590;28;20473;-49
2021/03/13 07:17:45;;;;;;;5.03;2.50;;;8.60;99.90;;;;;;5056769;28;20461;-50
2021/03/13 07:20:12;;;;;;;14.23;3.20;;;8.70;99.90;;;;;;5055549;28;20457;-49
2021/03/13 07:22:39;;;;;;;2.90;2.47;;;8.60;99.90;;;;;;5036862;28;20450;-49
2021/03/13 07:25:08;;;;;;;6.47;4.87;;;8.50;99.90;;;;;;5055623;28;20944;-50
2021/03/13 07:27:40;;;;;;;4.00;2.40;;;8.50;99.90;;;;;;5056161;28;20491;-49
2021/03/13 07:30:10;;;;;;;4.07;2.60;;;8.50;99.90;;;;;;5056419;28;20454;-50
2021/03/13 07:32:42;;;;;;;3.20;2.40;;;8.40;99.90;;;;;;5056660;28;20801;-50
2021/03/13 07:35:10;;;;;;;3.03;2.30;;;8.20;99.90;;;;;;5056425;28;20480;-48
2021/03/13 07:37:40;;;;;;;3.70;2.63;;;8.60;99.90;;;;;;5057101;28;20432;-50
2021/03/13 07:40:14;;;;;;;4.13;2.93;;;8.50;99.90;;;;;;5056849;28;20466;-49
2021/03/13 07:42:41;;;;;;;4.30;2.83;;;8.40;99.90;;;;;;5056152;28;20452;-49
2021/03/13 07:45:12;;;;;;;4.43;2.47;;;8.20;99.90;;;;;;5055932;28;20469;-49
2021/03/13 07:47:38;;;;;;;5.40;2.80;;;8.40;99.90;;;;;;5055820;28;20440;-48
2021/03/13 07:50:08;;;;;;;5.07;2.63;;;8.30;99.90;;;;;;5054641;28;20883;-48
2021/03/13 07:52:34;;;;;;;4.47;3.20;;;8.50;99.90;;;;;;5053772;28;20499;-50
2021/03/13 07:55:02;;;;;;;8.03;3.20;;;8.00;99.90;;;;;;5055977;28;20477;-49
2021/03/13 07:57:30;;;;;;;7.63;2.70;;;8.40;99.90;;;;;;5055566;28;20529;-49
2021/03/13 07:59:56;;;;;;;4.50;2.67;;;8.50;99.90;;;;;;5053312;28;20479;-48
2021/03/13 08:02:42;;;;;;;3.40;2.40;;;8.30;99.90;;;;;;5052626;28;20440;-48
2021/03/13 08:05:11;;;;;;;3.73;3.00;;;8.50;99.90;;;;;;5053281;28;20440;-49
2021/03/13 08:07:58;;;;;;;7.10;4.63;;;8.20;99.90;;;;;;5053354;28;20774;-49
2021/03/13 08:10:40;;;;;;;4.33;3.50;;;8.50;99.90;;;;;;5053380;28;20553;-49
2021/03/13 08:13:08;;;;;;;4.43;3.60;;;8.60;99.90;;;;;;5052926;28;20461;-48
2021/03/13 08:15:45;;;;;;;4.70;3.00;;;8.70;99.90;;;;;;5053204;28;20477;-49
2021/03/13 08:18:38;;;;;;;8.70;4.27;;;8.60;99.90;;;;;;5035318;28;20528;-49
2021/03/13 08:21:39;;;;;;;6.00;4.00;;;8.50;99.90;;;;;;5053178;28;20495;-50
2021/03/13 08:24:05;;;;;;;3.77;3.20;;;8.60;99.90;;;;;;5053029;28;20434;-51
2021/03/13 08:27:08;;;;;;;5.83;4.60;;;8.10;99.90;;;;;;5052594;28;20532;-50
2021/03/13 08:29:59;;;;;;;9.03;3.90;;;8.20;99.90;;;;;;5053118;28;20525;-50
2021/03/13 08:33:05;;;;;;;4.80;3.40;;;8.30;99.90;;;;;;5033257;28;20479;-49
2021/03/13 08:35:49;;;;;;;6.70;3.33;;;8.50;99.90;;;;;;5034568;28;20542;-50
2021/03/13 08:38:19;;;;;;;7.67;3.70;;;8.30;99.90;;;;;;5051790;28;20515;-49
2021/03/13 08:40:48;;;;;;;9.30;5.00;;;8.30;99.90;;;;;;5052598;28;20453;-48
2021/03/13 08:43:34;;;;;;;7.33;3.67;;;8.60;99.90;;;;;;5052990;28;20490;-49
2021/03/13 08:46:01;;;;;;;5.83;3.70;;;8.80;99.90;;;;;;5052799;28;20429;-49
2021/03/13 08:48:56;;;;;;;5.90;3.50;;;8.70;99.90;;;;;;5053095;28;20434;-49
2021/03/13 08:51:22;;;;;;;4.13;3.40;;;8.70;99.90;;;;;;5053409;28;20504;-49
2021/03/13 08:53:50;;;;;;;5.10;4.03;;;8.60;99.90;;;;;;5053462;28;20480;-48
2021/03/13 08:56:41;;;;;;;4.30;3.90;;;8.30;99.90;;;;;;5053087;28;20444;-49
2021/03/13 08:59:16;;;;;;;8.70;4.43;;;9.00;99.90;;;;;;5053058;28;20441;-50
2021/03/13 09:01:46;;;;;;;5.40;4.37;;;8.80;99.90;;;;;;5076300;22;20987;-46
2021/03/13 09:04:12;;;;;;;6.50;4.90;;;8.80;99.90;;;;;;5054736;28;20434;-47
2021/03/13 09:06:40;;;;;;;7.00;4.60;;;8.80;99.90;;;;;;5056011;28;20430;-46
2021/03/13 09:09:11;;;;;;;5.00;3.67;;;8.70;99.90;;;;;;5055992;28;20439;-46
2021/03/13 09:11:40;;;;;;;5.10;3.87;;;8.90;99.90;;;;;;5056154;28;20468;-47
2021/03/13 09:14:06;;;;;;;3.97;3.57;;;9.10;99.90;;;;;;5056279;28;20474;-47
2021/03/13 09:16:37;;;;;;;6.07;3.80;;;9.10;99.90;;;;;;5052797;28;20860;-46
2021/03/13 09:19:05;;;;;;;6.30;3.70;;;8.90;99.90;;;;;;5051349;28;20474;-46
2021/03/13 09:21:47;;;;;;;3.60;3.03;;;8.50;99.90;;;;;;5051101;28;20816;-48
2021/03/13 09:24:16;;;;;;;4.50;3.20;;;9.20;99.90;;;;;;5047560;28;20454;-45
2021/03/13 09:26:42;;;;;;;4.00;3.60;;;8.70;99.90;;;;;;5051526;28;20509;-47
2021/03/13 09:29:08;;;;;;;6.70;5.60;;;9.20;99.90;;;;;;5051340;28;20434;-46
2021/03/13 09:31:36;;;;;;;6.70;4.63;;;8.90;99.90;;;;;;5051070;28;20544;-47
2021/03/13 09:34:20;;;;;;;6.33;3.67;;;9.30;99.90;;;;;;5050856;28;20441;-46
2021/03/13 09:36:48;;;;;;;4.20;3.30;;;9.20;99.90;;;;;;5050962;28;20430;-47
2021/03/13 09:39:21;;;;;;;4.37;3.80;;;8.90;99.90;;;;;;5051211;28;20732;-46
2021/03/13 09:42:08;;;;;;;4.33;3.77;;;9.60;99.90;;;;;;5051069;28;20535;-47
2021/03/13 09:44:36;;;;;;;4.10;3.47;;;9.20;99.90;;;;;;5050816;28;20538;-47
2021/03/13 09:47:14;;;;;;;4.57;3.33;;;9.20;99.90;;;;;;5050693;28;20588;-46
2021/03/13 09:49:42;;;;;;;6.47;4.67;;;9.10;99.90;;;;;;5050999;28;20462;-45
2021/03/13 09:52:08;;;;;;;4.97;3.43;;;9.00;99.90;;;;;;5051429;28;20474;-47
2021/03/13 09:54:35;;;;;;;4.20;3.80;;;9.00;99.90;;;;;;5050535;28;20478;-46
2021/03/13 09:57:11;;;;;;;4.50;3.03;;;9.20;99.90;;;;;;5050483;28;20950;-46
2021/03/13 09:59:38;;;;;;;5.50;3.10;;;9.10;99.90;;;;;;5051001;28;20437;-45
2021/03/13 10:02:04;;;;;;;4.73;3.10;;;9.10;99.90;;;;;;5051075;28;20862;-47
2021/03/13 10:04:31;;;;;;;3.60;3.30;;;9.40;99.90;;;;;;5050358;28;20462;-47
2021/03/13 10:06:58;;;;;;;6.10;3.90;;;9.10;99.90;;;;;;5051137;28;20473;-46
2021/03/13 10:09:25;;;;;;;8.67;3.83;;;9.10;99.90;;;;;;5033152;28;20446;-45
2021/03/13 10:11:51;;;;;;;4.43;2.90;;;9.50;99.90;;;;;;5050718;28;20501;-47
2021/03/13 10:14:19;;;;;;;4.80;3.50;;;8.90;99.90;;;;;;5050943;28;20506;-46
2021/03/13 10:16:46;;;;;;;2.67;2.47;;;9.70;99.90;;;;;;5051217;28;20515;-46
2021/03/13 10:19:34;;;;;;;3.10;2.60;;;9.40;99.90;;;;;;5050091;28;20482;-46
2021/03/13 10:22:10;;;;;;;5.30;2.80;;;9.40;99.90;;;;;;5032615;28;20500;-46
2021/03/13 10:24:47;;;;;;;4.33;2.77;;;9.60;99.90;;;;;;5052578;28;20973;-46
2021/03/13 10:27:29;;;;;;;3.10;2.63;;;9.50;99.90;;;;;;5054100;28;20522;-46
2021/03/13 10:29:58;;;;;;;3.10;2.27;;;10.00;99.90;;;;;;5052143;28;20829;-46
2021/03/13 10:32:27;;;;;;;2.80;2.30;;;9.80;99.90;;;;;;5035388;28;20450;-46
2021/03/13 10:35:16;;;;;;;4.53;2.27;;;10.00;99.90;;;;;;5054236;28;20552;-47
2021/03/13 10:37:44;;;;;;;2.30;2.10;;;9.80;99.90;;;;;;5054237;28;20430;-47
2021/03/13 10:40:27;;;;;;;4.13;2.33;;;10.20;99.90;;;;;;5054539;28;20490;-45
2021/03/13 10:43:16;;;;;;;3.50;2.70;;;9.70;99.90;;;;;;5054335;28;20431;-46
2021/03/13 10:45:44;;;;;;;2.73;2.30;;;9.80;99.90;;;;;;5054236;28;20458;-44
2021/03/13 10:48:12;;;;;;;5.13;2.00;;;10.00;99.90;;;;;;5053611;28;20430;-46
2021/03/13 10:50:40;;;;;;;3.00;2.10;;;10.10;99.90;;;;;;5053272;28;20454;-46
2021/03/13 10:53:38;;;;;;;4.00;2.43;;;10.10;99.90;;;;;;5053461;28;20438;-44
2021/03/13 10:56:07;;;;;;;2.83;1.83;;;10.30;99.90;;;;;;4972571;28;20532;-44
2021/03/13 10:58:35;;;;;;;7.30;2.50;;;10.00;99.90;;;;;;5037314;28;20803;-44
2021/03/13 11:01:03;;;;;;;3.63;2.10;;;10.10;99.90;;;;;;5035252;28;20482;-45
2021/03/13 11:03:29;;;;;;;3.20;2.00;;;10.20;99.90;;;;;;5053482;28;20438;-45
2021/03/13 11:05:56;;;;;;;3.20;1.80;;;10.10;99.90;;;;;;5053835;28;20989;-44
2021/03/13 11:08:25;;;;;;;2.23;1.70;;;9.70;99.90;;;;;;5053055;28;20923;-46
2021/03/13 11:10:53;;;;;;;2.30;2.10;;;10.10;99.90;;;;;;5035403;28;20843;-45
2021/03/13 11:13:20;;;;;;;2.80;2.40;;;10.50;99.90;;;;;;5053448;28;20426;-45
2021/03/13 11:15:47;;;;;;;2.57;2.30;;;10.20;99.90;;;;;;5053764;28;20513;-46
2021/03/13 11:18:14;;;;;;;2.80;2.23;;;10.70;99.90;;;;;;5053373;28;21044;-45
2021/03/13 11:20:42;;;;;;;2.47;2.00;;;10.10;99.90;;;;;;5052977;28;20450;-46
2021/03/13 11:23:08;;;;;;;3.77;2.07;;;10.40;99.90;;;;;;5035020;28;20872;-45
2021/03/13 11:25:35;;;;;;;2.30;1.83;;;10.30;99.90;;;;;;5053500;28;20434;-45
2021/03/13 11:28:07;;;;;;;2.20;1.60;;;10.70;99.90;;;;;;5053730;28;20431;-46
2021/03/13 11:30:34;;;;;;;3.83;1.53;;;10.30;99.90;;;;;;5052701;28;20489;-47
2021/03/13 11:33:00;;;;;;;13.07;11.27;;;10.80;99.90;;;;;;5052717;28;20510;-46
2021/03/13 11:35:27;;;;;;;2.83;2.10;;;10.60;99.90;;;;;;5051984;28;21048;-47
2021/03/13 11:37:54;;;;;;;1.90;1.53;;;10.80;99.90;;;;;;5053400;28;20450;-48
2021/03/13 11:40:22;;;;;;;2.23;1.53;;;10.50;99.90;;;;;;5053181;28;20466;-47
2021/03/13 11:42:49;;;;;;;2.63;1.70;;;10.80;99.90;;;;;;5052427;28;20782;-46
2021/03/13 11:45:17;;;;;;;3.37;1.93;;;11.10;99.90;;;;;;5052348;28;20460;-46
2021/03/13 11:47:43;;;;;;;2.13;1.70;;;10.70;99.90;;;;;;5052540;28;20969;-46
2021/03/13 11:50:12;;;;;;;3.10;1.73;;;10.40;99.90;;;;;;5052506;28;20530;-47
2021/03/13 11:52:39;;;;;;;2.70;2.00;;;11.20;99.90;;;;;;5052169;28;20808;-46
2021/03/13 11:55:07;;;;;;;4.43;2.80;;;11.20;99.90;;;;;;5052901;28;20470;-46
2021/03/13 11:57:35;;;;;;;2.90;1.80;;;11.30;99.90;;;;;;5035117;28;20447;-47
2021/03/13 12:00:01;;;;;;;3.73;1.83;;;11.60;99.90;;;;;;5052808;28;20471;-47
2021/03/13 12:02:28;;;;;;;3.27;1.70;;;11.10;99.90;;;;;;5052216;28;20459;-46
2021/03/13 12:04:55;;;;;;;3.80;3.10;;;11.50;99.90;;;;;;5034203;28;20447;-47
2021/03/13 12:07:21;;;;;;;3.33;2.40;;;11.40;99.90;;;;;;5052106;28;20430;-46
2021/03/13 12:09:47;;;;;;;2.63;2.00;;;11.60;99.90;;;;;;5052170;28;20947;-47
2021/03/13 12:12:13;;;;;;;2.67;2.10;;;11.40;99.90;;;;;;5053057;28;20504;-47
2021/03/13 12:14:40;;;;;;;7.90;2.03;;;11.30;99.90;;;;;;5051961;28;20479;-45
2021/03/13 12:17:10;;;;;;;3.33;2.07;;;11.80;99.90;;;;;;5052279;28;20440;-46
2021/03/13 12:19:37;;;;;;;2.77;1.70;;;11.70;99.90;;;;;;5052202;28;20439;-44
2021/03/13 12:22:04;;;;;;;4.57;1.60;;;11.70;99.90;;;;;;5052470;28;20516;-46
2021/03/13 12:24:30;;;;;;;2.13;1.93;;;11.80;99.90;;;;;;5051454;28;20938;-46
2021/03/13 12:26:57;;;;;;;1.50;1.30;;;11.90;99.90;;;;;;5052010;28;20427;-48
2021/03/13 12:29:23;;;;;;;1.97;1.50;;;11.70;99.90;;;;;;5051853;28;20463;-44
2021/03/13 12:31:49;;;;;;;2.67;1.20;;;12.10;99.90;;;;;;5052105;28;20443;-45
2021/03/13 12:34:16;;;;;;;2.13;1.37;;;12.10;99.90;;;;;;5051528;28;20454;-47
2021/03/13 12:36:43;;;;;;;2.00;1.20;;;12.00;99.90;;;;;;5051914;28;20435;-47
2021/03/13 12:39:09;;;;;;;4.67;1.60;;;12.30;99.90;;;;;;5051393;28;20435;-47
2021/03/13 12:41:35;;;;;;;2.33;1.40;;;12.00;99.90;;;;;;5052103;28;20813;-45
2021/03/13 12:44:02;;;;;;;2.43;1.67;;;11.70;99.90;;;;;;5051335;28;20527;-46
2021/03/13 12:46:28;;;;;;;2.20;1.27;;;12.30;99.90;;;;;;5051993;28;20418;-47
2021/03/13 12:48:54;;;;;;;8.07;3.43;;;12.20;99.90;;;;;;5051563;28;20517;-46
2021/03/13 12:51:21;;;;;;;2.63;1.80;;;12.10;99.90;;;;;;5051664;28;20512;-45
2021/03/13 12:53:48;;;;;;;1.80;1.50;;;12.10;99.90;;;;;;5050645;28;20440;-46
2021/03/13 12:56:15;;;;;;;2.53;1.63;;;11.80;99.90;;;;;;5033265;28;20517;-45
2021/03/13 12:58:41;;;;;;;4.50;1.70;;;12.50;99.90;;;;;;5032955;28;20443;-46
2021/03/13 13:01:08;;;;;;;4.17;2.30;;;12.20;99.90;;;;;;5050521;28;20485;-46
2021/03/13 13:03:35;;;;;;;3.47;1.70;;;12.30;99.90;;;;;;5050676;28;20841;-47
2021/03/13 13:06:01;;;;;;;2.93;1.80;;;12.30;99.90;;;;;;5051283;28;20432;-47
2021/03/13 13:08:27;;;;;;;1.70;1.43;;;12.50;99.90;;;;;;5051616;28;20435;-47
2021/03/13 13:10:55;;;;;;;4.27;3.03;;;12.40;99.90;;;;;;5050646;28;20464;-46